Time;durP1;ratioP1;P1;durP2;ratioP2;P2;SDS_P1;SDS_P2;PMS_P1;PMS_P2;Temp;Humidity;BMP_temperature;BMP_pressure;BME280_temperature;BME280_humidity;BME280_pressure;Samples;Min_cycle;Max_cycle;Signal;HPM_P1;HPM_P2
2022/06/11 00:00:18;;;;;;;0.00;0.00;;;16.80;99.90;;;;;;4999387;28;20108;-63
2022/06/11 00:02:44;;;;;;;0.00;0.00;;;16.80;99.90;;;;;;4999486;28;20049;-63
2022/06/11 00:05:10;;;;;;;0.20;0.20;;;16.80;99.90;;;;;;4999341;28;20092;-63
2022/06/11 00:07:36;;;;;;;0.00;0.00;;;16.80;99.90;;;;;;4998005;28;20046;-63
2022/06/11 00:10:04;;;;;;;0.00;0.00;;;16.80;99.90;;;;;;5013864;28;20495;-64
2022/06/11 00:12:30;;;;;;;0.10;0.10;;;16.90;99.90;;;;;;4998464;28;20041;-64
2022/06/11 00:14:56;;;;;;;0.10;0.10;;;16.80;99.90;;;;;;4999357;28;20401;-64
2022/06/11 00:17:23;;;;;;;0.00;0.00;;;17.10;99.90;;;;;;4999051;28;20065;-64
2022/06/11 00:19:49;;;;;;;0.00;0.00;;;16.90;99.90;;;;;;4999087;28;20076;-63
2022/06/11 00:22:17;;;;;;;0.00;0.00;;;16.90;99.90;;;;;;4999021;28;20069;-63
2022/06/11 00:24:42;;;;;;;0.00;0.00;;;17.00;99.90;;;;;;4999767;28;20081;-63
2022/06/11 00:27:09;;;;;;;0.00;0.00;;;17.00;99.90;;;;;;4998631;28;20065;-63
2022/06/11 00:29:37;;;;;;;0.00;0.00;;;17.00;99.90;;;;;;4998781;28;20049;-64
2022/06/11 00:32:04;;;;;;;0.00;0.00;;;17.00;99.90;;;;;;4997707;28;20046;-64
2022/06/11 00:34:30;;;;;;;0.00;0.00;;;17.00;99.90;;;;;;4998671;28;20042;-64
2022/06/11 00:36:56;;;;;;;0.00;0.00;;;17.10;99.90;;;;;;4997922;28;20068;-63
2022/06/11 00:39:26;;;;;;;0.00;0.00;;;17.10;99.90;;;;;;4998772;28;20046;-64
2022/06/11 00:41:54;;;;;;;0.13;0.13;;;17.10;99.90;;;;;;4999407;28;20050;-63
2022/06/11 00:44:20;;;;;;;0.10;0.10;;;17.10;99.90;;;;;;4998954;28;20045;-64
2022/06/11 00:46:55;;;;;;;0.08;0.08;;;17.10;99.90;;;;;;5008623;28;20042;-63
2022/06/11 00:49:30;;;;;;;0.00;0.00;;;17.10;99.90;;;;;;4998960;28;20054;-64
2022/06/11 00:52:16;;;;;;;0.00;0.00;;;17.00;99.90;;;;;;4998249;28;20065;-64
2022/06/11 00:54:46;;;;;;;0.00;0.00;;;17.00;99.90;;;;;;5014032;28;20060;-65
2022/06/11 00:57:14;;;;;;;0.00;0.00;;;17.00;99.90;;;;;;4998129;28;20454;-64
2022/06/11 00:59:49;;;;;;;0.13;0.13;;;16.90;99.90;;;;;;4998316;28;20052;-64
2022/06/11 01:02:15;;;;;;;0.00;0.00;;;17.00;99.90;;;;;;4998980;28;20049;-64
2022/06/11 01:04:48;;;;;;;0.00;0.00;;;17.00;99.90;;;;;;4998829;28;20038;-63
2022/06/11 01:07:44;;;;;;;0.00;0.00;;;16.90;99.90;;;;;;4999110;28;20065;-63
2022/06/11 01:10:17;;;;;;;0.00;0.00;;;16.80;99.90;;;;;;4998505;28;20054;-64
2022/06/11 01:13:04;;;;;;;0.00;0.00;;;16.80;99.90;;;;;;4998521;28;20073;-64
2022/06/11 01:15:51;;;;;;;0.00;0.00;;;16.70;99.90;;;;;;5008211;28;20052;-63
2022/06/11 01:18:28;;;;;;;0.00;0.00;;;16.60;99.90;;;;;;5018465;28;20592;-64
2022/06/11 01:21:06;;;;;;;0.00;0.00;;;16.50;99.90;;;;;;5018420;28;20092;-64
2022/06/11 01:23:46;;;;;;;0.00;0.00;;;16.50;99.90;;;;;;5018447;28;20119;-63
2022/06/11 01:26:15;;;;;;;0.00;0.00;;;16.40;99.90;;;;;;5018569;28;20045;-63
2022/06/11 01:28:55;;;;;;;0.00;0.00;;;16.40;99.90;;;;;;5017849;28;20073;-63
2022/06/11 01:31:26;;;;;;;0.00;0.00;;;16.30;99.90;;;;;;5016527;28;20049;-64
2022/06/11 01:34:20;;;;;;;0.00;0.00;;;16.30;99.90;;;;;;5018643;28;20769;-64
2022/06/11 01:36:49;;;;;;;0.00;0.00;;;16.20;99.90;;;;;;5016229;28;20091;-63
2022/06/11 01:39:28;;;;;;;0.00;0.00;;;16.20;99.90;;;;;;5018585;28;20295;-63
2022/06/11 01:42:06;;;;;;;0.00;0.00;;;16.10;99.90;;;;;;5017356;28;20081;-64
2022/06/11 01:44:37;;;;;;;0.00;0.00;;;16.10;99.90;;;;;;5014967;28;20088;-63
2022/06/11 01:47:04;;;;;;;0.00;0.00;;;16.10;99.90;;;;;;5008270;28;20041;-63
2022/06/11 01:49:29;;;;;;;0.00;0.00;;;16.00;99.90;;;;;;5001091;28;20088;-64
2022/06/11 01:52:09;;;;;;;0.10;0.10;;;15.90;99.90;;;;;;5000814;28;20054;-63
2022/06/11 01:54:57;;;;;;;0.00;0.00;;;15.90;99.90;;;;;;5001718;28;20396;-63
2022/06/11 01:57:32;;;;;;;0.00;0.00;;;15.90;99.90;;;;;;5001160;28;20504;-64
2022/06/11 02:00:21;;;;;;;;;;;15.80;99.90;;;;;;5002302;28;20076;-63
2022/06/11 02:03:11;;;;;;;0.00;0.00;;;15.80;99.90;;;;;;4995676;28;19928;-64
2022/06/11 02:05:49;;;;;;;0.00;0.00;;;15.80;99.90;;;;;;5001060;28;20099;-63
2022/06/11 02:08:24;;;;;;;0.00;0.00;;;15.80;99.90;;;;;;5001794;28;20586;-63
2022/06/11 02:10:58;;;;;;;0.00;0.00;;;15.70;99.90;;;;;;5000567;28;20461;-63
2022/06/11 02:13:44;;;;;;;0.00;0.00;;;15.60;99.90;;;;;;5001043;28;20046;-63
2022/06/11 02:16:22;;;;;;;0.00;0.00;;;15.60;99.90;;;;;;5000870;28;20049;-63
2022/06/11 02:18:51;;;;;;;0.00;0.00;;;15.50;99.90;;;;;;5000239;28;20479;-63
2022/06/11 02:21:24;;;;;;;0.00;0.00;;;15.50;99.90;;;;;;5001186;28;20117;-64
2022/06/11 02:23:59;;;;;;;0.00;0.00;;;15.40;99.90;;;;;;5001544;28;20124;-63
2022/06/11 02:26:31;;;;;;;0.00;0.00;;;15.40;99.90;;;;;;5001692;28;20064;-63
2022/06/11 02:28:59;;;;;;;0.00;0.00;;;15.30;99.90;;;;;;4999809;28;20041;-63
2022/06/11 02:31:30;;;;;;;0.10;0.00;;;15.30;99.90;;;;;;5001093;28;20078;-63
2022/06/11 02:33:56;;;;;;;0.00;0.00;;;15.20;99.90;;;;;;5001193;28;20054;-64
2022/06/11 02:36:32;;;;;;;0.00;0.00;;;15.20;99.90;;;;;;5000038;28;20038;-64
2022/06/11 02:39:01;;;;;;;0.00;0.00;;;15.20;99.90;;;;;;5001064;28;20034;-64
2022/06/11 02:41:30;;;;;;;0.00;0.00;;;15.20;99.90;;;;;;5000894;28;20034;-63
2022/06/11 02:43:57;;;;;;;0.00;0.00;;;15.20;99.90;;;;;;4997500;28;20049;-63
2022/06/11 02:46:41;;;;;;;0.00;0.00;;;15.10;99.90;;;;;;5011965;28;20125;-64
2022/06/11 02:49:09;;;;;;;0.00;0.00;;;15.10;99.90;;;;;;5000637;28;20046;-63
2022/06/11 02:51:35;;;;;;;0.00;0.00;;;15.10;99.90;;;;;;5000810;28;20133;-64
2022/06/11 02:54:01;;;;;;;0.00;0.00;;;15.10;99.90;;;;;;5000866;28;20133;-64
2022/06/11 02:56:27;;;;;;;0.00;0.00;;;15.10;99.90;;;;;;5000356;28;20167;-63
2022/06/11 02:58:54;;;;;;;0.00;0.00;;;15.10;99.90;;;;;;4998656;28;20500;-64
2022/06/11 03:01:20;;;;;;;0.00;0.00;;;15.10;99.90;;;;;;5000209;28;20057;-63
2022/06/11 03:03:49;;;;;;;0.10;0.10;;;15.20;99.90;;;;;;5000785;28;20107;-63
2022/06/11 03:06:15;;;;;;;0.00;0.00;;;15.20;99.90;;;;;;5000288;28;20041;-63
2022/06/11 03:08:41;;;;;;;0.00;0.00;;;15.20;99.90;;;;;;5001059;28;20045;-64
2022/06/11 03:11:07;;;;;;;0.00;0.00;;;15.20;99.90;;;;;;4999913;28;20654;-63
2022/06/11 03:13:33;;;;;;;0.00;0.00;;;15.30;99.90;;;;;;4998899;28;20038;-64
2022/06/11 03:15:58;;;;;;;0.00;0.00;;;15.30;99.90;;;;;;4999311;28;20046;-63
2022/06/11 03:18:25;;;;;;;0.00;0.00;;;15.20;99.90;;;;;;4999988;28;20233;-63
2022/06/11 03:20:51;;;;;;;0.00;0.00;;;15.20;99.90;;;;;;5000504;28;20038;-64
2022/06/11 03:23:17;;;;;;;0.00;0.00;;;15.20;99.90;;;;;;4999773;28;20450;-63
2022/06/11 03:25:43;;;;;;;0.10;0.10;;;15.20;99.90;;;;;;4999819;28;20162;-63
2022/06/11 03:28:13;;;;;;;0.00;0.00;;;15.20;99.90;;;;;;4999520;28;20057;-63
2022/06/11 03:30:39;;;;;;;0.00;0.00;;;15.20;99.90;;;;;;5000049;28;20158;-63
2022/06/11 03:33:06;;;;;;;0.00;0.00;;;15.20;99.90;;;;;;4999601;28;20042;-63
2022/06/11 03:35:32;;;;;;;0.00;0.00;;;15.10;99.90;;;;;;4999949;28;20038;-64
2022/06/11 03:37:58;;;;;;;0.00;0.00;;;15.10;99.90;;;;;;5000248;28;20037;-63
2022/06/11 03:40:23;;;;;;;0.00;0.00;;;15.10;99.90;;;;;;4999498;28;20423;-63
2022/06/11 03:42:49;;;;;;;0.00;0.00;;;15.10;99.90;;;;;;4998792;28;20072;-63
2022/06/11 03:45:17;;;;;;;0.10;0.10;;;15.00;99.90;;;;;;5004975;28;20050;-63
2022/06/11 03:47:44;;;;;;;0.00;0.00;;;15.00;99.90;;;;;;5005944;28;20485;-63
2022/06/11 03:50:17;;;;;;;0.00;0.00;;;15.10;99.90;;;;;;4999326;28;20515;-63
2022/06/11 03:52:43;;;;;;;0.00;0.00;;;15.10;99.90;;;;;;5000120;28;20057;-63
2022/06/11 03:55:09;;;;;;;0.00;0.00;;;15.00;99.90;;;;;;4999561;28;20045;-63
2022/06/11 03:57:35;;;;;;;0.08;0.08;;;15.00;99.90;;;;;;4998007;28;20046;-63
2022/06/11 04:00:04;;;;;;;0.00;0.00;;;15.00;99.90;;;;;;4999683;28;20606;-63
2022/06/11 04:02:30;;;;;;;0.08;0.08;;;15.10;99.90;;;;;;4999235;28;20037;-64
2022/06/11 04:04:56;;;;;;;0.00;0.00;;;15.10;99.90;;;;;;4999861;28;20045;-63
2022/06/11 04:07:21;;;;;;;0.00;0.00;;;15.20;99.90;;;;;;4998300;28;20041;-63
2022/06/11 04:09:47;;;;;;;0.00;0.00;;;15.30;99.90;;;;;;4999038;28;20421;-63
2022/06/11 04:12:15;;;;;;;0.00;0.00;;;15.50;99.90;;;;;;4999209;28;20503;-63
2022/06/11 04:14:43;;;;;;;0.10;0.10;;;15.70;99.90;;;;;;4998946;28;20063;-63
2022/06/11 04:17:14;;;;;;;0.10;0.10;;;15.70;99.90;;;;;;4999348;28;20049;-63
2022/06/11 04:19:44;;;;;;;0.00;0.00;;;15.60;99.90;;;;;;4999443;28;20037;-64
2022/06/11 04:22:09;;;;;;;0.10;0.10;;;15.70;99.90;;;;;;4998396;28;20108;-63
2022/06/11 04:24:35;;;;;;;0.00;0.00;;;15.70;99.90;;;;;;4999216;28;20501;-63
2022/06/11 04:27:03;;;;;;;0.00;0.00;;;15.70;99.90;;;;;;4998466;28;20564;-65
2022/06/11 04:29:33;;;;;;;0.00;0.00;;;15.70;99.90;;;;;;4999103;28;20041;-63
2022/06/11 04:32:01;;;;;;;0.00;0.00;;;15.70;99.90;;;;;;4997334;28;20049;-63
2022/06/11 04:34:28;;;;;;;0.00;0.00;;;15.60;99.90;;;;;;4999317;28;20354;-63
2022/06/11 04:36:55;;;;;;;0.13;0.13;;;15.60;99.90;;;;;;4999278;28;20076;-64
2022/06/11 04:39:24;;;;;;;0.10;0.08;;;15.50;99.90;;;;;;4998302;28;20085;-63
2022/06/11 04:41:50;;;;;;;0.10;0.10;;;15.60;99.90;;;;;;4998078;28;20085;-63
2022/06/11 04:44:16;;;;;;;0.00;0.00;;;15.30;99.90;;;;;;4998769;28;20042;-63
2022/06/11 04:46:42;;;;;;;0.00;0.00;;;15.60;99.90;;;;;;5008390;28;20041;-63
2022/06/11 04:49:08;;;;;;;0.00;0.00;;;15.60;99.90;;;;;;4997314;28;20045;-63
2022/06/11 04:51:34;;;;;;;0.00;0.00;;;15.60;99.90;;;;;;4999103;28;20053;-64
2022/06/11 04:54:00;;;;;;;0.00;0.00;;;15.70;99.90;;;;;;4998722;28;20042;-64
2022/06/11 04:56:28;;;;;;;0.15;0.05;;;16.00;99.90;;;;;;4998046;28;20081;-63
2022/06/11 04:58:55;;;;;;;0.00;0.00;;;16.30;99.90;;;;;;4998902;28;20038;-63
2022/06/11 05:01:21;;;;;;;0.03;0.03;;;16.40;99.90;;;;;;4998827;28;20120;-64
2022/06/11 05:03:48;;;;;;;0.00;0.00;;;16.20;99.90;;;;;;4998171;28;20046;-64
2022/06/11 05:06:16;;;;;;;0.00;0.00;;;16.20;99.90;;;;;;4998824;28;20104;-63
2022/06/11 05:08:42;;;;;;;0.00;0.00;;;16.20;99.90;;;;;;4999408;28;20041;-63
2022/06/11 05:11:08;;;;;;;0.10;0.10;;;16.40;99.90;;;;;;4997337;28;20064;-64
2022/06/11 05:13:34;;;;;;;0.22;0.08;;;16.60;99.90;;;;;;4997427;28;20517;-64
2022/06/11 05:16:00;;;;;;;0.00;0.00;;;16.80;99.90;;;;;;4998902;28;20037;-63
2022/06/11 05:18:28;;;;;;;0.68;0.30;;;16.90;99.90;;;;;;4998877;28;20099;-64
2022/06/11 05:20:53;;;;;;;0.10;0.10;;;16.80;99.90;;;;;;4998061;28;20077;-64
2022/06/11 05:23:19;;;;;;;0.15;0.10;;;16.90;99.90;;;;;;5001300;28;20049;-63
2022/06/11 05:25:46;;;;;;;0.00;0.00;;;16.90;99.90;;;;;;5001542;28;20115;-63
2022/06/11 05:28:27;;;;;;;0.00;0.00;;;17.00;99.90;;;;;;5001570;28;20092;-63
2022/06/11 05:30:54;;;;;;;0.73;0.38;;;17.10;99.90;;;;;;5002069;28;20046;-63
2022/06/11 05:33:22;;;;;;;0.00;0.00;;;16.90;99.90;;;;;;5002038;28;20060;-63
2022/06/11 05:35:49;;;;;;;0.80;0.77;;;16.80;99.90;;;;;;5001571;28;20153;-63
2022/06/11 05:38:18;;;;;;;5.40;0.75;;;16.90;99.90;;;;;;5003022;28;20073;-63
2022/06/11 05:40:45;;;;;;;0.00;0.00;;;16.90;99.90;;;;;;5002405;28;20049;-63
2022/06/11 05:43:12;;;;;;;0.08;0.08;;;17.00;99.90;;;;;;5000487;28;20504;-63
2022/06/11 05:45:43;;;;;;;0.00;0.00;;;17.10;99.90;;;;;;5007400;28;20474;-63
2022/06/11 05:48:10;;;;;;;0.25;0.25;;;17.10;99.90;;;;;;5004359;28;20054;-63
2022/06/11 05:50:40;;;;;;;0.10;0.10;;;17.10;99.90;;;;;;5001766;28;20082;-63
2022/06/11 05:53:07;;;;;;;0.10;0.10;;;17.10;99.90;;;;;;5001045;28;20046;-63
2022/06/11 05:55:36;;;;;;;0.00;0.00;;;17.20;99.90;;;;;;5001999;28;20041;-63
2022/06/11 05:58:06;;;;;;;1.75;0.10;;;17.10;99.90;;;;;;5000918;28;20042;-63
2022/06/11 06:00:33;;;;;;;0.03;0.03;;;17.10;99.90;;;;;;4999914;28;20497;-63
2022/06/11 06:02:58;;;;;;;0.00;0.00;;;17.10;99.90;;;;;;5001573;28;20185;-63
2022/06/11 06:05:27;;;;;;;0.00;0.00;;;17.20;99.90;;;;;;5001652;28;20533;-64
2022/06/11 06:07:53;;;;;;;0.43;0.30;;;17.20;99.90;;;;;;5000850;28;20066;-63
2022/06/11 06:10:19;;;;;;;0.05;0.03;;;17.30;99.90;;;;;;5001118;28;20089;-63
2022/06/11 06:12:45;;;;;;;0.65;0.28;;;17.60;99.90;;;;;;5001159;28;20042;-63
2022/06/11 06:15:16;;;;;;;0.00;0.00;;;17.50;99.90;;;;;;5001943;28;20048;-63
2022/06/11 06:17:42;;;;;;;0.20;0.20;;;17.60;99.90;;;;;;5001252;28;20053;-64
2022/06/11 06:20:11;;;;;;;0.00;0.00;;;17.70;99.90;;;;;;5001268;28;20180;-63
2022/06/11 06:22:37;;;;;;;0.00;0.00;;;17.90;99.90;;;;;;5000914;28;20092;-63
2022/06/11 06:25:04;;;;;;;0.00;0.00;;;18.10;99.90;;;;;;5000387;28;20078;-63
2022/06/11 06:27:29;;;;;;;0.00;0.00;;;18.00;99.90;;;;;;5000902;28;20053;-64
2022/06/11 06:29:55;;;;;;;0.00;0.00;;;17.60;99.90;;;;;;5000686;28;20049;-64
2022/06/11 06:32:21;;;;;;;0.30;0.10;;;17.50;99.90;;;;;;5000911;28;20176;-63
2022/06/11 06:34:46;;;;;;;0.00;0.00;;;17.70;99.90;;;;;;4999710;28;20083;-64
2022/06/11 06:37:12;;;;;;;0.00;0.00;;;17.70;99.90;;;;;;5001076;28;20034;-63
2022/06/11 06:39:38;;;;;;;0.35;0.10;;;17.80;99.90;;;;;;5001455;28;20038;-64
2022/06/11 06:42:06;;;;;;;0.00;0.00;;;17.80;99.90;;;;;;4997899;28;20477;-64
2022/06/11 06:44:32;;;;;;;0.00;0.00;;;17.90;99.90;;;;;;5003190;28;20063;-64
2022/06/11 06:46:58;;;;;;;0.60;0.60;;;18.10;99.90;;;;;;5009280;28;20123;-63
2022/06/11 06:49:23;;;;;;;0.00;0.00;;;18.10;99.90;;;;;;5000646;28;20092;-64
2022/06/11 06:51:49;;;;;;;0.00;0.00;;;18.30;99.90;;;;;;4999004;28;20172;-64
2022/06/11 06:54:16;;;;;;;0.00;0.00;;;18.40;99.90;;;;;;5000600;28;20485;-65
2022/06/11 06:56:43;;;;;;;0.00;0.00;;;18.30;99.90;;;;;;5000342;28;20123;-63
2022/06/11 06:59:09;;;;;;;0.13;0.13;;;18.20;99.90;;;;;;4998637;28;20058;-64
2022/06/11 07:01:34;;;;;;;0.00;0.00;;;18.10;99.90;;;;;;5000385;28;20236;-64
2022/06/11 07:04:00;;;;;;;0.43;0.28;;;18.00;99.90;;;;;;5000970;28;20041;-63
2022/06/11 07:06:26;;;;;;;0.00;0.00;;;18.00;99.90;;;;;;5000259;28;20046;-64
2022/06/11 07:08:53;;;;;;;0.00;0.00;;;18.30;99.90;;;;;;4999797;28;20507;-65
2022/06/11 07:11:20;;;;;;;0.00;0.00;;;18.50;99.90;;;;;;4999216;28;20137;-63
2022/06/11 07:13:46;;;;;;;0.73;0.43;;;18.60;99.90;;;;;;5000510;28;20049;-63
2022/06/11 07:16:18;;;;;;;0.00;0.00;;;18.60;99.90;;;;;;4999939;28;20046;-63
2022/06/11 07:18:49;;;;;;;0.30;0.20;;;18.70;99.90;;;;;;5000675;28;20038;-64
2022/06/11 07:21:25;;;;;;;0.00;0.00;;;18.70;99.90;;;;;;4999376;28;20045;-70
2022/06/11 07:23:55;;;;;;;0.20;0.20;;;18.70;99.90;;;;;;4997658;28;20133;-64
2022/06/11 07:26:39;;;;;;;0.00;0.00;;;18.90;99.90;;;;;;4999520;28;20057;-64
2022/06/11 07:29:09;;;;;;;0.00;0.00;;;18.90;99.90;;;;;;4998710;28;20042;-64
2022/06/11 07:31:36;;;;;;;0.20;0.20;;;18.80;99.90;;;;;;4999829;28;20051;-63
2022/06/11 07:34:02;;;;;;;0.70;0.38;;;18.60;99.90;;;;;;4999686;28;20053;-64
2022/06/11 07:36:29;;;;;;;0.10;0.10;;;18.70;99.90;;;;;;4999489;28;20156;-64
2022/06/11 07:38:55;;;;;;;0.00;0.00;;;19.00;99.90;;;;;;5002780;28;20184;-64
2022/06/11 07:41:20;;;;;;;0.05;0.05;;;19.00;99.90;;;;;;5018267;28;20068;-64
2022/06/11 07:43:46;;;;;;;0.00;0.00;;;19.00;99.90;;;;;;5018219;28;20076;-64
2022/06/11 07:46:12;;;;;;;0.25;0.25;;;19.40;99.90;;;;;;5010625;28;20046;-64
2022/06/11 07:48:37;;;;;;;0.93;0.25;;;19.40;99.90;;;;;;5000187;28;20048;-64
2022/06/11 07:51:04;;;;;;;1.23;0.10;;;19.40;99.90;;;;;;4999721;28;20128;-64
2022/06/11 07:53:32;;;;;;;0.00;0.00;;;19.30;99.90;;;;;;5000416;28;20038;-64
2022/06/11 07:55:58;;;;;;;0.00;0.00;;;19.60;99.90;;;;;;5007974;28;20053;-63
2022/06/11 07:58:33;;;;;;;0.00;0.00;;;19.40;99.90;;;;;;5012476;28;20151;-64
2022/06/11 08:00:59;;;;;;;0.10;0.00;;;19.10;99.90;;;;;;5019030;28;20045;-64
2022/06/11 08:03:27;;;;;;;0.00;0.00;;;19.10;99.90;;;;;;5017254;28;20045;-64
2022/06/11 08:05:53;;;;;;;0.00;0.00;;;19.20;99.90;;;;;;5017729;28;20056;-64
2022/06/11 08:08:20;;;;;;;0.20;0.20;;;19.40;99.90;;;;;;5007685;28;20034;-64
2022/06/11 08:10:47;;;;;;;0.00;0.00;;;19.40;99.90;;;;;;5015374;28;20042;-64
2022/06/11 08:13:13;;;;;;;0.75;0.75;;;19.50;99.90;;;;;;5016808;28;20049;-64
2022/06/11 08:15:41;;;;;;;1.70;0.17;;;19.50;99.90;;;;;;5009029;28;20053;-64
2022/06/11 08:18:07;;;;;;;0.00;0.00;;;19.50;99.90;;;;;;5018868;28;20171;-64
2022/06/11 08:20:35;;;;;;;0.00;0.00;;;20.00;99.90;;;;;;5017337;28;20713;-64
2022/06/11 08:23:02;;;;;;;0.00;0.00;;;19.90;99.90;;;;;;5001131;28;20045;-64
2022/06/11 08:25:28;;;;;;;0.00;0.00;;;19.90;99.90;;;;;;5017778;28;20061;-64
2022/06/11 08:27:54;;;;;;;0.00;0.00;;;19.90;99.90;;;;;;5017390;28;20076;-64
2022/06/11 08:30:23;;;;;;;0.10;0.10;;;19.90;99.90;;;;;;5017406;28;20045;-64
2022/06/11 08:32:49;;;;;;;0.00;0.00;;;20.00;99.90;;;;;;5018683;28;20052;-64
2022/06/11 08:35:18;;;;;;;0.10;0.10;;;19.80;99.90;;;;;;5018666;28;20050;-64
2022/06/11 08:37:44;;;;;;;0.25;0.25;;;19.70;99.90;;;;;;5019142;28;20233;-64
2022/06/11 08:40:19;;;;;;;0.10;0.10;;;20.00;99.90;;;;;;5018794;28;20124;-64
2022/06/11 08:42:50;;;;;;;0.00;0.00;;;19.90;99.90;;;;;;5016048;28;20049;-64
2022/06/11 08:45:21;;;;;;;0.00;0.00;;;19.90;99.90;;;;;;5011677;28;20056;-64
2022/06/11 08:48:00;;;;;;;0.00;0.00;;;20.40;99.90;;;;;;5004918;28;20108;-64
2022/06/11 08:50:42;;;;;;;0.10;0.10;;;20.50;99.90;;;;;;4998550;28;20046;-64
2022/06/11 08:53:07;;;;;;;0.00;0.00;;;20.20;99.90;;;;;;5005838;28;20119;-64
2022/06/11 08:55:36;;;;;;;0.08;0.08;;;20.30;99.90;;;;;;5006790;28;20164;-64
2022/06/11 08:58:21;;;;;;;0.00;0.00;;;20.60;99.90;;;;;;5011725;28;20464;-64
2022/06/11 09:01:24;;;;;;;0.00;0.00;;;20.20;99.90;;;;;;5013099;28;20443;-64
2022/06/11 09:04:08;;;;;;;1.50;0.73;;;20.20;99.90;;;;;;5021530;28;20385;-63
2022/06/11 09:06:37;;;;;;;0.28;0.22;;;20.40;99.90;;;;;;5013404;28;20052;-63
2022/06/11 09:09:38;;;;;;;0.20;0.20;;;20.50;99.90;;;;;;5020290;28;20049;-64
2022/06/11 09:12:19;;;;;;;0.10;0.10;;;20.90;99.90;;;;;;5018916;28;20046;-63
2022/06/11 09:14:48;;;;;;;0.65;0.25;;;20.90;99.90;;;;;;5022252;28;20068;-63
2022/06/11 09:17:29;;;;;;;0.00;0.00;;;21.40;99.90;;;;;;5021865;28;20072;-63
2022/06/11 09:20:20;;;;;;;0.45;0.43;;;21.50;99.90;;;;;;5020742;28;20108;-64
2022/06/11 09:22:54;;;;;;;0.00;0.00;;;21.70;99.90;;;;;;5012853;28;20362;-63
2022/06/11 09:25:20;;;;;;;0.00;0.00;;;21.90;99.90;;;;;;5019355;28;20041;-64
2022/06/11 09:27:52;;;;;;;0.00;0.00;;;22.00;99.90;;;;;;5020376;28;20048;-65
2022/06/11 09:30:22;;;;;;;0.00;0.00;;;21.70;99.90;;;;;;5021947;28;20046;-64
2022/06/11 09:33:00;;;;;;;0.00;0.00;;;21.60;99.90;;;;;;5022126;28;20053;-64
2022/06/11 09:35:36;;;;;;;0.20;0.17;;;21.70;99.90;;;;;;5021827;28;20056;-64
2022/06/11 09:38:23;;;;;;;0.00;0.00;;;21.50;99.90;;;;;;5010719;28;20451;-64
2022/06/11 09:41:25;;;;;;;0.15;0.15;;;21.40;99.90;;;;;;5018552;28;20087;-64
2022/06/11 09:43:59;;;;;;;0.00;0.00;;;21.10;99.90;;;;;;4984514;28;20049;-65
2022/06/11 09:46:41;;;;;;;0.00;0.00;;;21.20;99.90;;;;;;5021075;28;20130;-65
2022/06/11 09:49:34;;;;;;;0.10;0.00;;;21.10;99.90;;;;;;5019678;28;20053;-80
2022/06/11 09:52:20;;;;;;;0.45;0.45;;;20.80;99.90;;;;;;5022398;28;20124;-79
2022/06/11 09:55:21;;;;;;;0.22;0.22;;;20.60;99.90;;;;;;5022427;28;20770;-70
2022/06/11 09:58:17;;;;;;;0.75;0.52;;;20.40;99.90;;;;;;5020591;28;20088;-78
2022/06/11 10:00:47;;;;;;;0.00;0.00;;;20.50;99.90;;;;;;5022064;28;20080;-80
2022/06/11 10:05:50;;;;;;;0.00;0.00;;;20.30;99.90;;;;;;5022211;28;20597;-79
2022/06/11 10:08:31;;;;;;;0.00;0.00;;;20.40;99.90;;;;;;5019624;28;20112;-70
2022/06/11 10:10:57;;;;;;;0.00;0.00;;;20.70;99.90;;;;;;5020328;28;20141;-78
2022/06/11 10:13:47;;;;;;;0.00;0.00;;;20.80;99.90;;;;;;5021702;28;20458;-80
2022/06/11 10:16:25;;;;;;;0.40;0.40;;;21.10;99.90;;;;;;5022762;28;20045;-80
2022/06/11 10:18:53;;;;;;;0.00;0.00;;;20.70;99.90;;;;;;5021968;28;20138;-80
2022/06/11 10:21:21;;;;;;;0.00;0.00;;;20.40;99.90;;;;;;5021240;28;20132;-80
2022/06/11 10:24:02;;;;;;;0.00;0.00;;;20.30;99.90;;;;;;5021641;28;20542;-80
2022/06/11 10:26:42;;;;;;;0.00;0.00;;;20.40;99.90;;;;;;5019833;28;20743;-79
2022/06/11 10:29:28;;;;;;;0.03;0.03;;;20.70;99.90;;;;;;5021453;28;20045;-79
2022/06/11 10:32:03;;;;;;;0.20;0.20;;;21.20;99.90;;;;;;5020487;28;20175;-79
2022/06/11 10:34:29;;;;;;;0.10;0.00;;;21.00;99.90;;;;;;5019744;28;20045;-78
2022/06/11 10:36:56;;;;;;;0.00;0.00;;;20.90;99.90;;;;;;5020833;28;20056;-80
2022/06/11 10:39:37;;;;;;;0.38;0.05;;;20.80;99.90;;;;;;5020046;28;20048;-78
2022/06/11 10:42:13;;;;;;;0.00;0.00;;;20.90;99.90;;;;;;5019909;28;20033;-78
2022/06/11 10:44:44;;;;;;;0.00;0.00;;;21.10;99.90;;;;;;5014958;28;20093;-79
2022/06/11 10:47:30;;;;;;;0.00;0.00;;;20.80;99.90;;;;;;5009675;28;20082;-78
2022/06/11 10:50:02;;;;;;;0.00;0.00;;;20.80;99.90;;;;;;4999846;28;20085;-72
2022/06/11 10:52:50;;;;;;;0.00;0.00;;;20.70;99.90;;;;;;5000938;28;20049;-79
2022/06/11 10:55:22;;;;;;;0.00;0.00;;;20.80;99.90;;;;;;4998544;28;20049;-80
2022/06/11 10:57:51;;;;;;;0.00;0.00;;;21.20;99.90;;;;;;4999402;28;20053;-78
2022/06/11 11:00:25;;;;;;;0.03;0.03;;;21.50;99.90;;;;;;5000383;28;20592;-79
2022/06/11 11:02:58;;;;;;;0.00;0.00;;;21.40;99.90;;;;;;4998605;28;20071;-79
2022/06/11 11:05:24;;;;;;;0.00;0.00;;;21.60;99.90;;;;;;5000582;28;20148;-78
2022/06/11 11:08:00;;;;;;;0.00;0.00;;;22.00;99.90;;;;;;5000881;28;20061;-79
2022/06/11 11:10:34;;;;;;;0.00;0.00;;;22.00;99.90;;;;;;4999729;28;20112;-79
2022/06/11 11:13:06;;;;;;;0.25;0.25;;;22.00;99.90;;;;;;5000864;28;20064;-78
2022/06/11 11:15:41;;;;;;;0.00;0.00;;;22.00;99.90;;;;;;4999311;28;20034;-79
2022/06/11 11:18:20;;;;;;;0.00;0.00;;;22.00;99.90;;;;;;5000327;28;20721;-78
2022/06/11 11:20:49;;;;;;;0.00;0.00;;;22.20;99.90;;;;;;4998608;28;20042;-79
2022/06/11 11:23:15;;;;;;;0.00;0.00;;;22.30;99.90;;;;;;5000691;28;20042;-74
2022/06/11 11:25:51;;;;;;;0.00;0.00;;;21.90;99.90;;;;;;4999980;28;20077;-78
2022/06/11 11:28:23;;;;;;;0.00;0.00;;;21.80;99.90;;;;;;4999215;28;20053;-79
2022/06/11 11:31:16;;;;;;;0.15;0.10;;;22.00;99.90;;;;;;4999892;28;20699;-68
2022/06/11 11:33:57;;;;;;;0.00;0.00;;;22.20;99.90;;;;;;4999378;28;20038;-67
2022/06/11 11:36:26;;;;;;;0.00;0.00;;;22.40;99.90;;;;;;4999780;28;20149;-71
2022/06/11 11:39:17;;;;;;;0.00;0.00;;;22.20;99.90;;;;;;5000012;28;20117;-71
2022/06/11 11:42:07;;;;;;;0.00;0.00;;;22.40;99.90;;;;;;4999988;28;20038;-69
2022/06/11 11:44:48;;;;;;;0.00;0.00;;;21.90;99.90;;;;;;5002269;28;20099;-70
2022/06/11 11:47:24;;;;;;;0.00;0.00;;;22.30;99.90;;;;;;5009013;28;20052;-70
2022/06/11 11:49:57;;;;;;;0.00;0.00;;;22.60;99.90;;;;;;4999648;28;20057;-70
2022/06/11 11:52:26;;;;;;;0.00;0.00;;;22.80;99.90;;;;;;4999575;28;20054;-70
2022/06/11 11:55:04;;;;;;;0.00;0.00;;;22.90;99.90;;;;;;4999834;28;20409;-69
2022/06/11 11:57:31;;;;;;;0.00;0.00;;;22.70;99.90;;;;;;4997351;28;20042;-70
2022/06/11 12:00:01;;;;;;;0.00;0.00;;;23.00;99.90;;;;;;4998363;28;20048;-69
2022/06/11 12:02:45;;;;;;;0.10;0.10;;;22.90;99.90;;;;;;4998626;28;20064;-70
2022/06/11 12:05:23;;;;;;;0.00;0.00;;;22.40;99.90;;;;;;5000241;28;20049;-69
2022/06/11 12:07:50;;;;;;;0.00;0.00;;;22.80;99.90;;;;;;5002461;28;20671;-70
2022/06/11 12:10:29;;;;;;;0.10;0.10;;;22.70;99.90;;;;;;5003897;28;20107;-70
2022/06/11 12:12:57;;;;;;;0.00;0.00;;;22.70;99.90;;;;;;4999340;28;20042;-71
2022/06/11 12:15:27;;;;;;;0.75;0.75;;;22.80;99.90;;;;;;4997290;28;20041;-71
2022/06/11 12:18:05;;;;;;;0.00;0.00;;;22.60;99.90;;;;;;4999413;28;20378;-71
2022/06/11 12:20:43;;;;;;;0.25;0.25;;;22.90;99.90;;;;;;4998938;28;20133;-71
2022/06/11 12:23:21;;;;;;;0.00;0.00;;;23.00;99.90;;;;;;4999184;28;20091;-71
2022/06/11 12:26:02;;;;;;;0.20;0.20;;;22.70;99.90;;;;;;4998773;28;20471;-70
2022/06/11 12:28:57;;;;;;;0.10;0.10;;;23.00;99.90;;;;;;4999199;28;20042;-71
2022/06/11 12:31:23;;;;;;;0.10;0.10;;;23.00;99.90;;;;;;4998081;28;20050;-70
2022/06/11 12:33:51;;;;;;;0.00;0.00;;;22.70;99.90;;;;;;4998921;28;20420;-70
2022/06/11 12:36:19;;;;;;;0.00;0.00;;;22.60;99.90;;;;;;4998793;28;20133;-70
2022/06/11 12:38:59;;;;;;;0.00;0.00;;;22.90;99.90;;;;;;4998221;28;20041;-68
2022/06/11 12:41:43;;;;;;;0.00;0.00;;;22.80;99.90;;;;;;4998393;28;20501;-70
2022/06/11 12:44:33;;;;;;;0.00;0.00;;;22.90;99.90;;;;;;4998560;28;20061;-69
2022/06/11 12:47:06;;;;;;;0.00;0.00;;;23.00;99.90;;;;;;5008050;28;20050;-69
2022/06/11 12:49:53;;;;;;;0.00;0.00;;;22.80;99.90;;;;;;4998180;28;20054;-70
2022/06/11 12:52:19;;;;;;;0.50;0.38;;;23.10;99.90;;;;;;4997539;28;20052;-69
2022/06/11 12:55:20;;;;;;;0.00;0.00;;;23.50;99.90;;;;;;4998563;28;20050;-69
2022/06/11 12:57:58;;;;;;;0.10;0.10;;;23.40;99.90;;;;;;4998852;28;20116;-70
2022/06/11 13:00:50;;;;;;;0.50;0.50;;;23.20;99.90;;;;;;4998617;28;20053;-70
2022/06/11 13:03:44;;;;;;;0.00;0.00;;;23.10;99.90;;;;;;4998192;28;20076;-71
2022/06/11 13:06:46;;;;;;;0.00;0.00;;;23.10;99.90;;;;;;4999030;28;20050;-69
2022/06/11 13:09:18;;;;;;;0.00;0.00;;;23.30;99.90;;;;;;4998873;28;20049;-69
2022/06/11 13:12:14;;;;;;;0.00;0.00;;;23.90;99.90;;;;;;5002741;28;20080;-69
2022/06/11 13:14:51;;;;;;;0.00;0.00;;;24.20;99.90;;;;;;5004363;28;20085;-71